createdAt,value
2023-03-26T00:01:27.557Z,82.74
2023-03-26T00:04:39.434Z,82.58
2023-03-26T00:08:07.970Z,82.77
2023-03-26T00:10:52.457Z,83.00
2023-03-26T00:13:19.591Z,83.22
2023-03-26T00:16:46.280Z,83.27
2023-03-26T00:19:14.038Z,83.47
2023-03-26T00:22:46.497Z,83.52
2023-03-26T00:30:05.958Z,83.96
2023-03-26T00:33:32.734Z,84.22
2023-03-26T00:39:49.365Z,84.10
2023-03-26T00:42:29.359Z,84.34
2023-03-26T00:44:58.167Z,84.34
2023-03-26T00:47:25.922Z,84.36
2023-03-26T00:50:40.484Z,84.31
2023-03-26T00:53:18.861Z,84.53
2023-03-26T00:56:16.580Z,84.44
2023-03-26T00:59:43.098Z,84.62
2023-03-26T01:06:43.536Z,84.67
2023-03-26T01:09:24.280Z,84.60
2023-03-26T01:12:52.181Z,84.85
2023-03-26T01:16:02.312Z,84.79
2023-03-26T01:19:28.909Z,85.01
2023-03-26T01:21:59.161Z,84.88
2023-03-26T01:25:24.231Z,84.94
2023-03-26T01:28:17.690Z,85.24
2023-03-26T01:31:59.424Z,85.03
2023-03-26T01:35:23.929Z,85.08
2023-03-26T01:38:26.690Z,85.23
2023-03-26T01:45:56.374Z,85.12
2023-03-26T01:48:31.619Z,85.23
2023-03-26T01:52:12.601Z,85.21
2023-03-26T01:55:38.352Z,84.96
2023-03-26T01:59:21.492Z,85.22
2023-03-26T02:02:31.264Z,85.35
2023-03-26T02:05:42.642Z,85.18
2023-03-26T02:08:49.428Z,85.11
2023-03-26T02:12:17.823Z,85.17
2023-03-26T02:19:38.153Z,85.64
2023-03-26T02:22:47.583Z,85.86
2023-03-26T02:29:46.557Z,86.12
2023-03-26T02:32:58.732Z,86.02
2023-03-26T02:35:28.527Z,86.37
2023-03-26T02:38:51.952Z,86.29
2023-03-26T02:42:03.053Z,86.40
2023-03-26T02:45:10.406Z,86.73
2023-03-26T02:48:04.057Z,86.46
2023-03-26T02:54:57.220Z,86.58
2023-03-26T02:58:25.015Z,86.94
2023-03-26T03:01:13.368Z,86.96
2023-03-26T03:07:33.023Z,86.94
2023-03-26T03:10:10.143Z,86.81
2023-03-26T03:13:16.163Z,87.04
2023-03-26T03:16:25.143Z,86.61
2023-03-26T03:23:45.773Z,86.79
2023-03-26T03:27:13.631Z,86.52
2023-03-26T03:30:40.200Z,86.44
2023-03-26T03:34:09.063Z,86.71
2023-03-26T03:37:45.578Z,86.29
2023-03-26T03:40:48.601Z,86.28
2023-03-26T03:44:15.231Z,86.41
2023-03-26T03:51:35.806Z,86.28
2023-03-26T03:54:03.785Z,86.11
2023-03-26T03:56:32.884Z,86.16
2023-03-26T03:59:48.066Z,86.08
2023-03-26T04:02:57.519Z,85.83
2023-03-26T04:06:13.467Z,86.16
2023-03-26T04:09:39.957Z,86.11
2023-03-26T04:12:07.209Z,85.94
2023-03-26T04:14:36.698Z,86.12
2023-03-26T04:17:05.492Z,86.09
2023-03-26T04:19:34.730Z,86.31
2023-03-26T04:22:05.238Z,86.10
2023-03-26T04:24:38.630Z,86.28
2023-03-26T04:27:09.407Z,86.25
2023-03-26T04:29:43.657Z,86.28
2023-03-26T04:32:19.606Z,86.14
2023-03-26T04:34:49.427Z,86.07
2023-03-26T04:37:41.875Z,86.18
2023-03-26T04:40:16.865Z,86.02
2023-03-26T04:47:27.661Z,86.14
2023-03-26T04:50:54.292Z,86.08
2023-03-26T04:58:13.938Z,86.14
2023-03-26T05:01:17.779Z,85.92
2023-03-26T05:03:48.405Z,85.94
2023-03-26T05:06:16.483Z,86.01
2023-03-26T05:09:47.832Z,85.87
2023-03-26T05:13:17.318Z,85.72
2023-03-26T05:16:26.349Z,85.97
2023-03-26T05:19:21.632Z,85.97
2023-03-26T05:22:21.120Z,85.69
2023-03-26T05:24:48.958Z,85.72
2023-03-26T05:28:18.619Z,85.68
2023-03-26T05:30:45.443Z,85.73
2023-03-26T05:33:55.276Z,85.60
2023-03-26T05:37:22.417Z,85.30
2023-03-26T05:40:49.292Z,85.35
2023-03-26T05:43:43.446Z,85.19
2023-03-26T05:46:25.392Z,85.17
2023-03-26T05:49:18.905Z,84.97
2023-03-26T05:51:45.751Z,85.20
2023-03-26T05:54:12.439Z,85.12
2023-03-26T05:56:39.307Z,84.96
2023-03-26T05:59:07.149Z,84.88
2023-03-26T06:01:33.848Z,85.13
2023-03-26T06:04:00.934Z,84.96
2023-03-26T06:06:28.046Z,84.83
2023-03-26T06:09:01.595Z,84.92
2023-03-26T06:11:30.212Z,85.05
2023-03-26T06:13:56.871Z,85.05
2023-03-26T06:16:26.369Z,85.12
2023-03-26T06:18:56.913Z,85.24
2023-03-26T06:21:25.699Z,85.19
2023-03-26T06:23:53.003Z,84.84
2023-03-26T06:26:20.361Z,85.00
2023-03-26T06:28:47.201Z,84.93
2023-03-26T06:31:13.978Z,85.00
2023-03-26T06:33:40.964Z,84.93
2023-03-26T06:36:07.985Z,84.92
2023-03-26T06:38:34.667Z,84.80
2023-03-26T06:41:06.387Z,84.67
2023-03-26T06:43:33.837Z,84.37
2023-03-26T06:46:02.038Z,84.53
2023-03-26T06:48:31.891Z,84.31
2023-03-26T06:50:59.274Z,84.33
2023-03-26T06:53:26.140Z,83.99
2023-03-26T06:55:54.685Z,84.17
2023-03-26T06:58:22.434Z,83.73
2023-03-26T07:00:55.343Z,83.81
2023-03-26T07:03:23.235Z,83.48
2023-03-26T07:05:49.916Z,83.60
2023-03-26T07:08:16.708Z,83.27
2023-03-26T07:10:43.743Z,83.45
2023-03-26T07:13:10.555Z,83.11
2023-03-26T07:15:37.295Z,83.28
2023-03-26T07:18:04.800Z,82.96
2023-03-26T07:20:31.911Z,83.15
2023-03-26T07:22:58.927Z,82.72
2023-03-26T07:25:26.143Z,82.90
2023-03-26T07:27:57.353Z,82.91
2023-03-26T07:30:52.171Z,82.43
2023-03-26T07:33:29.420Z,82.33
2023-03-26T07:35:59.288Z,82.35
2023-03-26T07:38:47.327Z,81.66
2023-03-26T07:41:23.419Z,81.63
2023-03-26T07:43:52.869Z,81.33
2023-03-26T07:46:26.161Z,81.01
2023-03-26T07:48:55.094Z,81.05
2023-03-26T07:51:22.089Z,80.69
2023-03-26T07:53:49.516Z,80.55
2023-03-26T07:56:38.642Z,80.19
2023-03-26T07:59:17.660Z,80.24
2023-03-26T08:01:59.960Z,79.96
2023-03-26T08:04:39.227Z,79.66
2023-03-26T08:07:10.632Z,79.78
2023-03-26T08:09:47.094Z,79.23
2023-03-26T08:12:38.943Z,79.29
2023-03-26T08:15:22.827Z,79.16
2023-03-26T08:17:54.434Z,78.81
2023-03-26T08:20:34.382Z,78.92
2023-03-26T08:23:23.554Z,78.87
2023-03-26T08:26:10.643Z,78.32
2023-03-26T08:29:15.901Z,78.27
2023-03-26T08:31:45.136Z,78.27
2023-03-26T08:34:13.458Z,78.05
2023-03-26T08:36:40.527Z,78.08
2023-03-26T08:39:07.815Z,78.09
2023-03-26T08:42:20.850Z,77.96
2023-03-26T08:45:05.915Z,78.00
2023-03-26T08:48:01.915Z,77.98
2023-03-26T08:50:49.873Z,77.58
2023-03-26T08:53:34.561Z,78.06
2023-03-26T08:56:07.472Z,78.22
2023-03-26T08:58:40.522Z,78.13
2023-03-26T09:01:19.777Z,78.64
2023-03-26T09:04:20.040Z,78.54
2023-03-26T09:06:59.234Z,78.29
2023-03-26T09:09:35.917Z,78.55
2023-03-26T09:12:12.443Z,78.14
2023-03-26T09:15:02.480Z,78.14
2023-03-26T09:17:42.278Z,77.68
2023-03-26T09:20:24.352Z,77.58
2023-03-26T09:22:53.691Z,77.21
2023-03-26T09:25:29.320Z,77.07
2023-03-26T09:27:59.125Z,76.81
2023-03-26T09:30:28.845Z,76.98
2023-03-26T09:33:09.881Z,76.92
2023-03-26T09:35:54.456Z,76.90
2023-03-26T09:38:27.374Z,76.69
2023-03-26T09:41:11.149Z,76.95
2023-03-26T09:44:19.172Z,76.95
2023-03-26T09:47:04.664Z,77.06
2023-03-26T09:50:12.778Z,77.42
2023-03-26T09:53:05.399Z,77.30
2023-03-26T09:55:58.681Z,77.35
2023-03-26T09:58:41.406Z,77.52
2023-03-26T10:01:29.510Z,77.62
2023-03-26T10:04:23.920Z,77.47
2023-03-26T10:06:51.799Z,77.41
2023-03-26T10:09:37.405Z,77.45
2023-03-26T10:12:25.457Z,77.54
2023-03-26T10:15:25.251Z,77.58
2023-03-26T10:18:27.188Z,78.11
2023-03-26T10:21:08.356Z,78.11
2023-03-26T10:24:01.342Z,78.26
2023-03-26T10:27:10.061Z,78.58
2023-03-26T10:30:14.534Z,78.54
2023-03-26T10:33:09.488Z,78.91
2023-03-26T10:35:53.205Z,79.05
2023-03-26T10:38:47.058Z,79.07
2023-03-26T10:41:22.497Z,78.75
2023-03-26T10:44:25.090Z,78.62
2023-03-26T10:47:11.252Z,79.13
2023-03-26T10:50:00.765Z,78.86
2023-03-26T10:52:52.755Z,78.96
2023-03-26T10:55:40.823Z,78.77
2023-03-26T10:58:29.673Z,78.92
2023-03-26T11:01:31.953Z,78.54
2023-03-26T11:04:14.836Z,79.06
2023-03-26T11:07:08.722Z,78.72
2023-03-26T11:10:53.563Z,79.01
2023-03-26T11:13:38.502Z,78.99
2023-03-26T11:16:15.114Z,79.03
2023-03-26T11:18:47.437Z,78.89
2023-03-26T11:21:26.483Z,79.13
2023-03-26T11:24:27.228Z,78.81
2023-03-26T11:27:26.348Z,78.67
2023-03-26T11:30:16.382Z,78.69
2023-03-26T11:32:47.088Z,78.65
2023-03-26T11:35:40.625Z,78.33
2023-03-26T11:38:20.817Z,78.36
2023-03-26T11:40:51.676Z,78.05
2023-03-26T11:43:24.372Z,78.00
2023-03-26T11:45:53.859Z,77.91
2023-03-26T11:48:23.477Z,77.85
2023-03-26T11:50:55.958Z,77.22
2023-03-26T11:53:29.090Z,76.46
2023-03-26T11:56:04.621Z,76.18
2023-03-26T11:58:34.377Z,75.82
2023-03-26T12:01:30.406Z,75.48
2023-03-26T12:04:04.567Z,75.01
2023-03-26T12:06:33.262Z,74.81
2023-03-26T12:08:59.986Z,74.21
2023-03-26T12:11:29.637Z,73.49
2023-03-26T12:14:00.583Z,73.15
2023-03-26T12:16:28.008Z,72.99
2023-03-26T12:19:17.350Z,72.64
2023-03-26T12:21:52.892Z,72.35
2023-03-26T12:24:32.020Z,72.10
2023-03-26T12:27:21.922Z,71.57
2023-03-26T12:30:25.915Z,71.19
2023-03-26T12:33:03.727Z,70.80
2023-03-26T12:35:34.473Z,70.33
2023-03-26T12:38:30.427Z,69.99
2023-03-26T12:41:08.736Z,69.31
2023-03-26T12:44:52.814Z,68.94
2023-03-26T12:47:56.097Z,68.69
2023-03-26T12:49:34.780Z,68.43
2023-03-26T12:52:29.296Z,68.35
2023-03-26T12:55:03.228Z,67.49
2023-03-26T12:57:48.116Z,67.33
2023-03-26T13:00:26.528Z,66.71
2023-03-26T13:03:25.876Z,65.94
2023-03-26T13:06:14.159Z,65.35
2023-03-26T13:09:07.436Z,65.47
2023-03-26T13:12:14.403Z,65.15
2023-03-26T13:15:09.222Z,64.70
2023-03-26T13:18:23.384Z,64.56
2023-03-26T13:20:57.203Z,64.47
2023-03-26T13:23:45.388Z,64.24
2023-03-26T13:26:31.109Z,63.40
2023-03-26T13:29:17.597Z,62.97
2023-03-26T13:32:08.551Z,62.44
2023-03-26T13:34:59.702Z,61.80
2023-03-26T13:37:56.704Z,61.05
2023-03-26T13:40:25.292Z,60.64
2023-03-26T13:43:16.360Z,59.58
2023-03-26T13:46:05.583Z,59.23
2023-03-26T13:48:47.754Z,58.55
2023-03-26T13:51:34.351Z,57.98
2023-03-26T13:54:13.966Z,57.26
2023-03-26T13:56:46.483Z,56.45
2023-03-26T13:59:20.981Z,56.14
2023-03-26T14:01:53.586Z,55.73
2023-03-26T14:04:34.285Z,55.33
2023-03-26T14:07:12.734Z,55.16
2023-03-26T14:09:48.953Z,54.14
2023-03-26T14:12:28.964Z,53.60
2023-03-26T14:15:04.538Z,52.99
2023-03-26T14:17:39.716Z,52.04
2023-03-26T14:20:37.916Z,50.22
2023-03-26T14:23:19.816Z,47.48
2023-03-26T14:26:29.752Z,45.57
2023-03-26T14:29:21.626Z,44.89
2023-03-26T14:31:54.599Z,44.10
2023-03-26T14:35:20.195Z,43.88
2023-03-26T14:38:18.490Z,43.48
2023-03-26T14:41:06.195Z,43.65
2023-03-26T14:43:42.332Z,43.63
2023-03-26T14:46:48.172Z,43.13
2023-03-26T14:49:18.080Z,42.58
2023-03-26T14:51:56.974Z,42.04
2023-03-26T14:54:28.291Z,42.03
2023-03-26T14:57:30.715Z,41.96
2023-03-26T15:00:16.148Z,41.81
2023-03-26T15:03:38.801Z,41.58
2023-03-26T15:06:20.226Z,41.24
2023-03-26T15:09:09.128Z,40.85
2023-03-26T15:11:48.108Z,40.57
2023-03-26T15:14:20.780Z,40.67
2023-03-26T15:16:47.411Z,39.79
2023-03-26T15:19:44.961Z,38.54
2023-03-26T15:22:31.143Z,37.72
2023-03-26T15:25:16.967Z,37.11
2023-03-26T15:27:57.447Z,37.05
2023-03-26T15:30:48.672Z,37.22
2023-03-26T15:33:51.878Z,38.02
2023-03-26T15:36:34.660Z,39.39
2023-03-26T15:39:20.074Z,39.68
2023-03-26T15:42:19.024Z,40.54
2023-03-26T15:45:01.030Z,41.06
2023-03-26T15:48:05.432Z,40.81
2023-03-26T15:50:57.114Z,41.25
2023-03-26T15:53:55.088Z,41.88
2023-03-26T15:56:43.352Z,41.37
2023-03-26T15:59:37.293Z,41.08
2023-03-26T16:02:07.617Z,41.10
2023-03-26T16:04:50.457Z,41.02
2023-03-26T16:07:29.641Z,41.15
2023-03-26T16:10:19.597Z,41.55
2023-03-26T16:12:53.418Z,42.05
2023-03-26T16:15:24.529Z,42.58
2023-03-26T16:18:15.642Z,43.44
2023-03-26T16:20:51.102Z,43.72
2023-03-26T16:23:47.495Z,44.75
2023-03-26T16:26:23.473Z,45.24
2023-03-26T16:28:53.506Z,45.78
2023-03-26T16:31:36.854Z,46.48
2023-03-26T16:34:05.374Z,47.03
2023-03-26T16:36:34.946Z,46.89
2023-03-26T16:39:04.943Z,47.11
2023-03-26T16:41:34.780Z,47.47
2023-03-26T16:44:07.335Z,47.93
2023-03-26T16:46:34.646Z,47.89
2023-03-26T16:49:17.461Z,48.15
2023-03-26T16:51:55.413Z,48.53
2023-03-26T16:54:43.136Z,48.64
2023-03-26T16:57:38.736Z,48.63
2023-03-26T17:00:16.699Z,48.88
2023-03-26T17:03:00.172Z,48.98
2023-03-26T17:05:34.339Z,48.98
2023-03-26T17:08:35.989Z,49.58
2023-03-26T17:11:22.371Z,49.41
2023-03-26T17:14:04.155Z,50.12
2023-03-26T17:16:40.908Z,50.24
2023-03-26T17:19:16.817Z,50.57
2023-03-26T17:22:04.665Z,50.76
2023-03-26T17:24:45.777Z,51.12
2023-03-26T17:28:07.631Z,51.17
2023-03-26T17:31:05.558Z,51.87
2023-03-26T17:33:38.963Z,52.00
2023-03-26T17:36:11.869Z,52.28
2023-03-26T17:38:39.004Z,52.60
2023-03-26T17:41:07.607Z,53.04
2023-03-26T17:43:52.277Z,53.15
2023-03-26T17:46:37.677Z,53.77
2023-03-26T17:49:16.239Z,53.78
2023-03-26T17:51:58.283Z,53.78
2023-03-26T17:54:36.429Z,54.00
2023-03-26T17:57:10.587Z,54.52
2023-03-26T17:59:39.295Z,54.63
2023-03-26T18:02:16.788Z,54.84
2023-03-26T18:04:47.929Z,54.69
2023-03-26T18:07:32.721Z,54.89
2023-03-26T18:10:22.621Z,54.66
2023-03-26T18:13:04.505Z,55.05
2023-03-26T18:15:49.579Z,55.28
2023-03-26T18:18:20.049Z,55.53
2023-03-26T18:20:49.299Z,55.61
2023-03-26T18:23:46.370Z,55.61
2023-03-26T18:26:19.264Z,55.80
2023-03-26T18:28:54.902Z,55.63
2023-03-26T18:31:26.729Z,55.82
2023-03-26T18:34:03.388Z,55.99
2023-03-26T18:36:31.308Z,56.44
2023-03-26T18:39:04.431Z,56.56
2023-03-26T18:41:37.400Z,56.49
2023-03-26T18:44:06.513Z,56.58
2023-03-26T18:46:34.224Z,56.69
2023-03-26T18:49:02.989Z,56.88
2023-03-26T18:51:31.970Z,56.92
2023-03-26T18:54:01.234Z,57.14
2023-03-26T18:56:40.220Z,57.14
2023-03-26T18:59:21.933Z,57.33
2023-03-26T19:01:50.070Z,57.17
2023-03-26T19:04:17.852Z,57.27
2023-03-26T19:06:46.222Z,57.62
2023-03-26T19:09:30.428Z,57.67
2023-03-26T19:12:09.557Z,58.29
2023-03-26T19:15:02.876Z,58.56
2023-03-26T19:17:34.578Z,58.60
2023-03-26T19:20:01.783Z,58.68
2023-03-26T19:22:30.625Z,58.80
2023-03-26T19:25:01.470Z,58.74
2023-03-26T19:27:28.555Z,58.52
2023-03-26T19:29:55.390Z,58.44
2023-03-26T19:32:32.474Z,58.01
2023-03-26T19:35:02.861Z,58.06
2023-03-26T19:37:31.046Z,57.92
2023-03-26T19:40:20.981Z,58.21
2023-03-26T19:42:50.711Z,57.94
2023-03-26T19:45:23.297Z,57.84
2023-03-26T19:48:03.605Z,57.84
2023-03-26T19:50:43.758Z,57.24
2023-03-26T19:53:19.300Z,57.08
2023-03-26T19:56:05.261Z,57.24
2023-03-26T19:58:35.310Z,57.63
2023-03-26T20:01:03.751Z,57.67
2023-03-26T20:03:39.626Z,57.71
2023-03-26T20:06:08.990Z,57.86
2023-03-26T20:08:35.994Z,58.36
2023-03-26T20:11:03.011Z,58.26
2023-03-26T20:13:31.222Z,58.55
2023-03-26T20:16:06.497Z,58.71
2023-03-26T20:18:34.943Z,58.88
2023-03-26T20:21:02.115Z,58.84
2023-03-26T20:23:29.262Z,58.84
2023-03-26T20:25:56.643Z,59.11
2023-03-26T20:28:24.649Z,59.07
2023-03-26T20:30:54.691Z,59.11
2023-03-26T20:33:28.017Z,59.17
2023-03-26T20:35:56.976Z,59.26
2023-03-26T20:38:39.120Z,59.37
2023-03-26T20:41:16.005Z,59.50
2023-03-26T20:43:42.679Z,59.75
2023-03-26T20:46:21.417Z,59.85
2023-03-26T20:48:49.475Z,59.90
2023-03-26T20:51:18.504Z,60.13
2023-03-26T20:53:46.475Z,60.35
2023-03-26T20:56:18.920Z,60.59
2023-03-26T20:58:54.765Z,61.04
2023-03-26T21:01:27.919Z,61.31
2023-03-26T21:03:55.018Z,61.81
2023-03-26T21:06:21.706Z,61.92
2023-03-26T21:08:48.750Z,62.01
2023-03-26T21:11:26.384Z,62.31
2023-03-26T21:14:09.778Z,62.56
2023-03-26T21:16:37.579Z,62.88
2023-03-26T21:19:04.622Z,62.82
2023-03-26T21:21:57.756Z,62.88
2023-03-26T21:24:33.238Z,62.79
2023-03-26T21:27:17.687Z,62.66
2023-03-26T21:29:44.554Z,62.61
2023-03-26T21:32:12.354Z,62.81
2023-03-26T21:34:47.827Z,62.85
2023-03-26T21:37:23.210Z,62.84
2023-03-26T21:39:50.189Z,62.95
2023-03-26T21:42:17.894Z,63.01
2023-03-26T21:44:45.147Z,63.13
2023-03-26T21:47:12.303Z,63.11
2023-03-26T21:49:39.275Z,63.09
2023-03-26T21:52:06.343Z,62.98
2023-03-26T21:54:33.504Z,62.94
2023-03-26T21:57:00.116Z,63.08
2023-03-26T21:59:54.232Z,63.11
2023-03-26T22:02:31.129Z,63.43
2023-03-26T22:05:00.183Z,63.32
2023-03-26T22:07:49.672Z,63.54
2023-03-26T22:10:16.692Z,63.52
2023-03-26T22:12:43.520Z,63.86
2023-03-26T22:15:13.836Z,63.79
2023-03-26T22:17:42.011Z,63.83
2023-03-26T22:20:14.843Z,63.85
2023-03-26T22:22:48.985Z,63.76
2023-03-26T22:25:17.804Z,63.84
2023-03-26T22:27:46.096Z,63.98
2023-03-26T22:30:14.270Z,64.23
2023-03-26T22:32:41.779Z,64.11
2023-03-26T22:35:08.798Z,64.33
2023-03-26T22:37:37.529Z,64.28
2023-03-26T22:40:08.434Z,64.55
2023-03-26T22:42:36.112Z,64.46
2023-03-26T22:45:04.308Z,64.42
2023-03-26T22:47:33.761Z,64.41
2023-03-26T22:50:00.852Z,64.41
2023-03-26T22:52:28.360Z,64.36
2023-03-26T22:54:55.054Z,64.38
2023-03-26T22:57:24.464Z,64.38
2023-03-26T22:59:52.241Z,64.63
2023-03-26T23:02:19.755Z,65.00
2023-03-26T23:04:47.885Z,64.71
2023-03-26T23:07:15.213Z,64.70
2023-03-26T23:09:41.877Z,64.84
2023-03-26T23:12:09.006Z,64.82
2023-03-26T23:14:36.552Z,65.02
2023-03-26T23:17:03.786Z,64.99
2023-03-26T23:19:30.668Z,65.24
2023-03-26T23:21:57.666Z,65.21
2023-03-26T23:24:26.565Z,65.43
2023-03-26T23:26:53.451Z,65.31
2023-03-26T23:29:20.373Z,65.27
2023-03-26T23:31:47.830Z,65.43
2023-03-26T23:34:16.676Z,65.52
2023-03-26T23:36:44.915Z,65.57
2023-03-26T23:39:11.634Z,65.71
2023-03-26T23:41:38.409Z,65.65
2023-03-26T23:44:05.454Z,65.86
2023-03-26T23:46:34.949Z,66.06
2023-03-26T23:49:05.027Z,66.16
2023-03-26T23:51:32.752Z,66.13
2023-03-26T23:54:00.715Z,66.20
2023-03-26T23:56:30.576Z,66.13
2023-03-26T23:58:58.493Z,66.09
